Time;durP1;ratioP1;P1;durP2;ratioP2;P2;SDS_P1;SDS_P2;PMS_P1;PMS_P2;Temp;Humidity;BMP_temperature;BMP_pressure;BME280_temperature;BME280_humidity;BME280_pressure;Samples;Min_cycle;Max_cycle;Signal;HPM_P1;HPM_P2
2022/10/08 00:01:27;;;;;;;18.07;11.07;;;10.70;99.90;;;;;;4780173;30;20727;-87
2022/10/08 00:03:55;;;;;;;19.83;12.03;;;10.70;99.90;;;;;;4772266;30;20254;-85
2022/10/08 00:06:31;;;;;;;20.10;11.87;;;10.70;99.90;;;;;;4771885;30;20239;-84
2022/10/08 00:09:01;;;;;;;21.30;12.50;;;10.70;99.90;;;;;;4772424;30;20204;-85
2022/10/08 00:11:34;;;;;;;18.33;10.80;;;10.70;99.90;;;;;;4774798;30;20261;-80
2022/10/08 00:14:02;;;;;;;19.90;11.27;;;10.70;99.90;;;;;;4791358;29;20224;-80
2022/10/08 00:16:35;;;;;;;19.07;11.20;;;10.70;99.90;;;;;;4777368;30;20305;-84
2022/10/08 00:19:10;;;;;;;19.57;11.53;;;10.80;99.90;;;;;;4777180;30;20216;-77
2022/10/08 00:21:39;;;;;;;14.77;10.23;;;10.80;99.90;;;;;;4778282;30;20650;-84
2022/10/08 00:24:09;;;;;;;17.70;10.27;;;10.70;99.90;;;;;;4780298;30;20201;-79
2022/10/08 00:26:37;;;;;;;18.03;10.77;;;10.80;99.90;;;;;;4781167;30;20208;-83
2022/10/08 00:29:12;;;;;;;18.10;10.80;;;10.80;99.90;;;;;;4777076;30;20566;-84
2022/10/08 00:31:42;;;;;;;19.00;10.80;;;10.80;99.90;;;;;;4774628;30;20718;-85
2022/10/08 00:34:12;;;;;;;17.43;10.60;;;10.80;99.90;;;;;;4774763;30;20712;-85
2022/10/08 00:36:40;;;;;;;22.80;11.20;;;10.80;99.90;;;;;;4774575;30;20709;-82
2022/10/08 00:39:13;;;;;;;17.13;10.33;;;10.80;99.90;;;;;;4774693;29;20212;-83
2022/10/08 00:41:41;;;;;;;16.73;10.23;;;10.70;99.90;;;;;;4790914;30;20203;-87
2022/10/08 00:44:45;;;;;;;18.67;10.97;;;10.80;99.90;;;;;;4774770;30;20638;-88
2022/10/08 00:47:28;;;;;;;16.73;10.47;;;10.70;99.90;;;;;;4774666;30;20214;-86
2022/10/08 00:50:18;;;;;;;19.03;10.80;;;10.70;99.90;;;;;;4790749;29;20200;-80
2022/10/08 00:52:52;;;;;;;18.23;10.43;;;10.70;99.90;;;;;;4778463;30;20682;-85
2022/10/08 00:55:22;;;;;;;17.77;10.83;;;10.70;99.90;;;;;;4774867;30;20233;-81
2022/10/08 00:57:50;;;;;;;14.30;9.70;;;10.70;99.90;;;;;;4776552;30;20230;-85
2022/10/08 01:00:22;;;;;;;18.40;10.70;;;10.70;99.90;;;;;;4775060;30;20242;-81
2022/10/08 01:02:50;;;;;;;18.50;10.60;;;10.70;99.90;;;;;;4774879;30;20220;-86
2022/10/08 01:05:33;;;;;;;15.87;10.77;;;10.70;99.90;;;;;;4774035;30;20243;-85
2022/10/08 01:08:23;;;;;;;18.60;10.23;;;10.70;99.90;;;;;;4774701;30;20269;-85
2022/10/08 01:11:51;;;;;;;18.50;11.17;;;10.80;99.90;;;;;;4703144;30;20219;-86
2022/10/08 01:14:32;;;;;;;17.10;10.23;;;10.80;99.90;;;;;;4665632;30;20232;-82
2022/10/08 01:16:59;;;;;;;19.63;10.93;;;10.80;99.90;;;;;;4651297;30;20241;-85
2022/10/08 01:19:34;;;;;;;16.37;9.87;;;10.90;99.90;;;;;;4665751;30;20218;-85
2022/10/08 01:22:17;;;;;;;18.10;10.20;;;10.90;99.90;;;;;;4665883;30;20236;-86
2022/10/08 01:27:45;;;;;;;15.53;9.90;;;11.00;99.90;;;;;;4651293;30;20221;-87
2022/10/08 01:30:16;;;;;;;17.67;10.93;;;11.00;99.90;;;;;;4651392;30;20578;-88
2022/10/08 01:32:52;;;;;;;17.27;10.47;;;11.10;99.90;;;;;;4665362;30;20304;-88
2022/10/08 01:35:26;;;;;;;17.67;10.23;;;11.00;99.90;;;;;;4665363;30;20282;-84
2022/10/08 01:37:54;;;;;;;17.00;10.37;;;11.10;99.90;;;;;;4651148;30;20235;-79
2022/10/08 01:40:28;;;;;;;17.80;10.27;;;11.10;99.90;;;;;;4665440;30;20287;-87
2022/10/08 01:42:58;;;;;;;16.70;10.10;;;11.00;99.90;;;;;;4650940;30;20212;-85
2022/10/08 01:45:31;;;;;;;17.90;10.53;;;11.00;99.90;;;;;;4650568;30;20221;-87
2022/10/08 01:48:03;;;;;;;16.37;10.17;;;11.10;99.90;;;;;;4691299;30;20242;-85
2022/10/08 01:50:35;;;;;;;16.83;10.47;;;11.10;99.90;;;;;;4764426;30;20208;-86
2022/10/08 01:53:10;;;;;;;19.50;10.23;;;11.10;99.90;;;;;;4773486;30;20212;-85
2022/10/08 01:55:46;;;;;;;17.80;10.37;;;11.00;99.90;;;;;;4773219;30;20227;-84
2022/10/08 01:58:26;;;;;;;15.33;10.53;;;11.00;99.90;;;;;;4773407;30;20584;-81
2022/10/08 02:00:55;;;;;;;16.23;10.43;;;11.00;99.90;;;;;;4773284;30;20212;-85
2022/10/08 02:03:22;;;;;;;15.97;10.43;;;11.00;99.90;;;;;;4773469;30;20208;-85
2022/10/08 02:05:54;;;;;;;18.30;11.00;;;11.00;99.90;;;;;;4773056;30;20255;-85
2022/10/08 02:08:21;;;;;;;16.63;10.57;;;11.10;99.90;;;;;;4774412;30;20212;-87
2022/10/08 02:10:50;;;;;;;14.83;9.70;;;11.00;99.90;;;;;;4773658;30;20200;-84
2022/10/08 02:13:19;;;;;;;20.03;10.87;;;11.00;99.90;;;;;;4789515;30;20606;-86
2022/10/08 02:16:11;;;;;;;15.47;10.57;;;11.10;99.90;;;;;;4789137;30;20228;-88
2022/10/08 02:18:44;;;;;;;18.83;10.60;;;11.10;99.90;;;;;;4773101;30;20208;-81
2022/10/08 02:21:23;;;;;;;17.03;11.10;;;11.20;99.90;;;;;;4789198;30;20211;-85
2022/10/08 02:24:12;;;;;;;16.20;11.03;;;11.20;99.90;;;;;;4773312;30;20212;-79
2022/10/08 02:26:53;;;;;;;18.87;10.80;;;11.20;99.90;;;;;;4772951;30;20189;-81
2022/10/08 02:29:28;;;;;;;18.10;10.63;;;11.30;99.90;;;;;;4789480;29;20211;-81
2022/10/08 02:32:30;;;;;;;16.10;10.70;;;11.30;99.90;;;;;;4773370;30;20214;-83
2022/10/08 02:35:08;;;;;;;14.93;10.47;;;11.30;99.90;;;;;;4736760;30;20271;-78
2022/10/08 02:37:42;;;;;;;18.60;11.20;;;11.30;99.90;;;;;;4753379;30;20232;-81
2022/10/08 02:40:13;;;;;;;17.53;11.50;;;11.40;99.90;;;;;;4741886;30;20211;-86
2022/10/08 02:42:45;;;;;;;15.60;10.57;;;11.30;99.90;;;;;;4736840;30;20206;-86
2022/10/08 02:45:26;;;;;;;18.53;11.20;;;11.30;99.90;;;;;;4736914;30;20209;-86
2022/10/08 02:48:04;;;;;;;17.90;10.70;;;11.30;99.90;;;;;;4751054;30;20224;-85
2022/10/08 02:50:37;;;;;;;19.40;10.83;;;11.30;99.90;;;;;;4736276;30;20197;-83
2022/10/08 02:53:05;;;;;;;19.43;10.97;;;11.30;99.90;;;;;;4736417;30;20217;-88
2022/10/08 02:55:48;;;;;;;19.77;11.63;;;11.30;99.90;;;;;;4736589;30;20236;-86
2022/10/08 02:58:15;;;;;;;17.57;11.07;;;11.20;99.90;;;;;;4724986;30;20657;-87
2022/10/08 03:00:57;;;;;;;20.07;11.33;;;11.20;99.90;;;;;;4733476;30;20597;-86
2022/10/08 03:03:42;;;;;;;18.47;11.37;;;11.20;99.90;;;;;;4719412;30;20260;-87
2022/10/08 03:06:11;;;;;;;18.10;11.43;;;11.10;99.90;;;;;;4734935;30;20246;-87
2022/10/08 03:08:44;;;;;;;18.80;10.63;;;11.10;99.90;;;;;;4720860;30;20630;-84
2022/10/08 03:11:12;;;;;;;18.07;11.30;;;11.10;99.90;;;;;;4761682;30;20208;-79
2022/10/08 03:13:44;;;;;;;16.63;11.10;;;11.00;99.90;;;;;;4792815;29;20295;-84
2022/10/08 03:16:14;;;;;;;17.23;11.70;;;11.00;99.90;;;;;;4790087;29;20273;-87
2022/10/08 03:18:43;;;;;;;18.30;11.60;;;11.00;99.90;;;;;;4776351;30;20205;-87
2022/10/08 03:21:12;;;;;;;17.77;12.00;;;11.00;99.90;;;;;;4777465;30;20199;-85
2022/10/08 03:23:40;;;;;;;17.47;10.90;;;11.00;99.90;;;;;;4789358;30;20278;-87
2022/10/08 03:26:07;;;;;;;21.00;12.23;;;11.00;99.90;;;;;;4772769;30;20204;-87
2022/10/08 03:28:33;;;;;;;20.37;12.43;;;10.90;99.90;;;;;;4789320;30;20307;-87
2022/10/08 03:31:05;;;;;;;21.37;12.70;;;10.90;99.90;;;;;;4772423;30;20215;-88
2022/10/08 03:33:32;;;;;;;20.67;12.73;;;10.90;99.90;;;;;;4763920;29;20212;-83
2022/10/08 03:35:59;;;;;;;20.67;12.57;;;10.90;99.90;;;;;;4776939;30;20228;-87
2022/10/08 03:38:27;;;;;;;21.37;13.27;;;10.90;99.90;;;;;;4791443;29;20211;-86
2022/10/08 03:40:57;;;;;;;18.10;12.47;;;11.00;99.90;;;;;;4806296;29;20231;-86
2022/10/08 03:43:32;;;;;;;20.23;12.67;;;11.00;99.90;;;;;;4789879;29;20223;-87
2022/10/08 03:46:02;;;;;;;20.80;12.70;;;11.00;99.90;;;;;;4789723;29;20203;-86
2022/10/08 03:48:30;;;;;;;22.10;13.17;;;11.10;99.90;;;;;;4789937;29;20217;-82
2022/10/08 03:51:00;;;;;;;20.73;13.33;;;11.10;99.90;;;;;;4809732;29;20207;-81
2022/10/08 03:53:27;;;;;;;20.07;13.23;;;11.20;99.90;;;;;;4795778;29;20192;-84
2022/10/08 03:55:54;;;;;;;21.37;13.40;;;11.30;99.90;;;;;;4795525;29;20219;-85
2022/10/08 03:58:21;;;;;;;22.70;14.17;;;11.30;99.90;;;;;;4795898;29;20263;-83
2022/10/08 04:01:04;;;;;;;21.03;14.07;;;11.40;99.90;;;;;;4811695;29;20270;-86
2022/10/08 04:03:34;;;;;;;20.43;13.63;;;11.40;99.90;;;;;;4795777;29;20207;-86
2022/10/08 04:06:01;;;;;;;22.23;13.47;;;11.50;99.90;;;;;;4811164;29;20236;-79
2022/10/08 04:08:28;;;;;;;24.30;14.23;;;11.60;99.90;;;;;;4796320;29;20211;-78
2022/10/08 04:10:55;;;;;;;19.53;13.17;;;11.70;99.90;;;;;;4795812;29;20207;-83
2022/10/08 04:13:22;;;;;;;23.37;14.07;;;11.70;99.90;;;;;;4811745;29;20658;-85
2022/10/08 04:15:49;;;;;;;18.43;12.87;;;11.70;99.90;;;;;;4811394;29;20196;-86
2022/10/08 04:18:16;;;;;;;20.07;13.07;;;11.80;99.90;;;;;;4811683;29;20222;-87
2022/10/08 04:20:43;;;;;;;19.03;12.83;;;11.80;99.90;;;;;;4795283;29;20200;-83
2022/10/08 04:23:11;;;;;;;18.33;12.90;;;11.80;99.90;;;;;;4789740;30;20208;-86
2022/10/08 04:25:48;;;;;;;18.27;12.93;;;11.90;99.90;;;;;;4777197;30;20204;-86
2022/10/08 04:28:15;;;;;;;20.73;13.03;;;11.90;99.90;;;;;;4777357;29;20241;-83
2022/10/08 04:30:42;;;;;;;20.97;13.67;;;11.90;99.90;;;;;;4777238;30;20212;-79
2022/10/08 04:33:09;;;;;;;19.33;13.53;;;11.90;99.90;;;;;;4777633;30;20200;-86
2022/10/08 04:35:37;;;;;;;22.20;13.90;;;11.90;99.90;;;;;;4776914;30;20208;-85
2022/10/08 04:38:03;;;;;;;20.43;13.47;;;12.00;99.90;;;;;;4793266;30;20617;-85
2022/10/08 04:40:30;;;;;;;23.67;13.60;;;12.00;99.90;;;;;;4777222;30;20200;-85
2022/10/08 04:42:57;;;;;;;20.87;12.63;;;12.10;99.90;;;;;;4777118;29;20215;-83
2022/10/08 04:45:24;;;;;;;25.17;13.47;;;12.10;99.90;;;;;;4777033;30;20216;-85
2022/10/08 04:47:51;;;;;;;21.33;12.93;;;12.20;99.90;;;;;;4777103;30;20208;-85
2022/10/08 04:50:18;;;;;;;17.53;12.57;;;12.20;99.90;;;;;;4793369;30;20185;-85
2022/10/08 04:52:44;;;;;;;20.97;13.27;;;12.20;99.90;;;;;;4777044;30;20212;-84
2022/10/08 04:55:12;;;;;;;19.70;13.30;;;12.30;99.90;;;;;;4794661;29;20203;-85
2022/10/08 04:57:40;;;;;;;23.40;13.43;;;12.20;99.90;;;;;;4811174;29;20226;-85
2022/10/08 05:00:07;;;;;;;22.30;13.60;;;12.30;99.90;;;;;;4787697;30;20204;-85
2022/10/08 05:02:44;;;;;;;19.23;13.17;;;12.30;99.90;;;;;;4792313;29;20244;-85
2022/10/08 05:05:12;;;;;;;20.20;13.07;;;12.40;99.90;;;;;;4776761;30;20259;-86
2022/10/08 05:07:39;;;;;;;20.83;13.37;;;12.40;99.90;;;;;;4773998;30;20289;-85
2022/10/08 05:10:06;;;;;;;21.10;12.93;;;12.40;99.90;;;;;;4774525;30;20201;-85
2022/10/08 05:12:33;;;;;;;23.00;13.23;;;12.50;99.90;;;;;;4774047;29;20316;-86
2022/10/08 05:15:00;;;;;;;20.33;13.43;;;12.50;99.90;;;;;;4774008;30;20257;-85
2022/10/08 05:17:26;;;;;;;23.07;13.10;;;12.50;99.90;;;;;;4774262;30;20232;-81
2022/10/08 05:19:53;;;;;;;21.60;14.17;;;12.50;99.90;;;;;;4774215;30;20204;-83
2022/10/08 05:22:20;;;;;;;22.13;14.10;;;12.40;99.90;;;;;;4790090;30;20208;-79
2022/10/08 05:24:47;;;;;;;22.20;13.53;;;12.50;99.90;;;;;;4776500;29;20330;-83
2022/10/08 05:27:14;;;;;;;19.97;13.47;;;12.60;99.90;;;;;;4791606;29;20278;-80
2022/10/08 05:29:41;;;;;;;19.30;13.77;;;12.60;99.90;;;;;;4791491;29;20204;-81
2022/10/08 05:32:08;;;;;;;19.33;12.57;;;12.60;99.90;;;;;;4791998;29;20260;-84
2022/10/08 05:34:35;;;;;;;19.33;13.30;;;12.60;99.90;;;;;;4791582;29;20208;-82
2022/10/08 05:37:02;;;;;;;21.67;13.67;;;12.60;99.90;;;;;;4776769;29;20299;-82
2022/10/08 05:39:47;;;;;;;19.83;13.10;;;12.60;99.90;;;;;;4791847;29;20203;-83
2022/10/08 05:42:14;;;;;;;20.83;13.67;;;12.60;99.90;;;;;;4792404;29;20554;-85
2022/10/08 05:44:41;;;;;;;18.73;13.03;;;12.60;99.90;;;;;;4790561;29;20204;-84
2022/10/08 05:47:11;;;;;;;21.87;13.60;;;12.60;99.90;;;;;;4763787;30;20208;-83
2022/10/08 05:49:38;;;;;;;22.03;13.80;;;12.50;99.90;;;;;;4789348;30;20208;-82
2022/10/08 05:52:04;;;;;;;21.10;14.10;;;12.60;99.90;;;;;;4773684;30;20204;-85
2022/10/08 05:54:31;;;;;;;21.33;13.50;;;12.60;99.90;;;;;;4773116;30;20208;-82
2022/10/08 05:56:58;;;;;;;20.73;13.43;;;12.50;99.90;;;;;;4773455;30;20628;-82
2022/10/08 05:59:25;;;;;;;19.70;13.50;;;12.60;99.90;;;;;;4791089;29;20314;-82
2022/10/08 06:01:52;;;;;;;19.93;14.17;;;12.60;99.90;;;;;;4779191;30;20211;-84
2022/10/08 06:04:18;;;;;;;21.20;13.80;;;12.60;99.90;;;;;;4780017;29;20607;-82
2022/10/08 06:06:46;;;;;;;21.07;13.40;;;12.60;99.90;;;;;;4795398;29;20257;-78
2022/10/08 06:09:16;;;;;;;22.90;14.43;;;12.70;99.90;;;;;;4780364;29;20658;-80
2022/10/08 06:11:45;;;;;;;21.13;13.87;;;12.70;99.90;;;;;;4776300;30;20238;-80
2022/10/08 06:14:15;;;;;;;21.83;14.07;;;12.80;99.90;;;;;;4781226;29;20215;-82
2022/10/08 06:16:42;;;;;;;21.10;14.27;;;13.00;99.90;;;;;;4790353;29;20215;-78
2022/10/08 06:19:09;;;;;;;19.37;13.50;;;13.10;99.90;;;;;;4796764;24;20718;-80
2022/10/08 06:21:36;;;;;;;22.43;13.90;;;13.20;99.90;;;;;;4781334;29;20301;-78
2022/10/08 06:24:06;;;;;;;20.77;13.20;;;13.30;99.90;;;;;;4801996;29;20276;-79
2022/10/08 06:26:36;;;;;;;19.63;13.17;;;13.40;99.90;;;;;;4790448;29;20581;-82
2022/10/08 06:29:32;;;;;;;;;;;;;;;;;;;;;
2022/10/08 06:32:01;;;;;;;20.83;12.93;;;13.60;99.90;;;;;;4767934;30;20212;-81
2022/10/08 06:34:28;;;;;;;21.80;12.90;;;13.70;99.90;;;;;;4768681;30;20595;-85
2022/10/08 06:36:55;;;;;;;19.70;12.53;;;13.90;99.90;;;;;;4754096;30;20251;-85
2022/10/08 06:39:36;;;;;;;19.67;13.17;;;13.90;99.90;;;;;;4767735;30;20223;-79
2022/10/08 06:42:03;;;;;;;22.27;12.70;;;13.90;99.90;;;;;;4754203;30;20200;-86
2022/10/08 06:44:30;;;;;;;19.67;13.30;;;13.90;99.90;;;;;;4757792;30;20216;-84
2022/10/08 06:47:04;;;;;;;17.93;12.50;;;14.00;99.90;;;;;;4776536;30;20215;-85
2022/10/08 06:49:31;;;;;;;18.27;12.50;;;14.10;99.90;;;;;;4770719;30;20578;-83
2022/10/08 06:51:58;;;;;;;19.27;12.27;;;14.20;99.90;;;;;;4765151;30;20283;-81
2022/10/08 06:54:26;;;;;;;19.93;12.47;;;14.20;99.90;;;;;;4759309;30;20204;-77
2022/10/08 06:56:56;;;;;;;23.10;12.37;;;14.30;99.90;;;;;;4776714;29;20227;-81
2022/10/08 06:59:32;;;;;;;20.57;11.97;;;14.40;99.90;;;;;;4766316;29;20557;-82
2022/10/08 07:02:02;;;;;;;19.83;12.43;;;14.50;99.90;;;;;;4780443;29;20211;-84
2022/10/08 07:04:30;;;;;;;19.33;12.23;;;14.60;99.90;;;;;;4780331;29;20206;-76
2022/10/08 07:06:57;;;;;;;20.47;12.70;;;14.70;99.90;;;;;;4771179;30;20217;-83
2022/10/08 07:09:24;;;;;;;18.50;12.20;;;14.70;99.90;;;;;;4783941;29;20633;-80
2022/10/08 07:11:51;;;;;;;19.30;12.37;;;14.90;99.90;;;;;;4769143;30;20209;-83
2022/10/08 07:14:19;;;;;;;17.70;11.77;;;14.90;99.90;;;;;;4770523;30;20272;-82
2022/10/08 07:16:46;;;;;;;18.00;11.90;;;15.00;99.90;;;;;;4786706;30;20265;-84
2022/10/08 07:19:14;;;;;;;18.60;11.77;;;15.20;99.90;;;;;;4771491;29;20236;-78
2022/10/08 07:21:40;;;;;;;18.90;12.10;;;15.20;99.90;;;;;;4773028;30;20204;-84
2022/10/08 07:24:07;;;;;;;18.93;12.37;;;15.30;99.90;;;;;;4768031;30;20257;-81
2022/10/08 07:26:34;;;;;;;18.03;11.47;;;15.30;99.90;;;;;;4771159;30;20261;-82
2022/10/08 07:29:07;;;;;;;18.60;12.53;;;15.40;99.90;;;;;;4769542;29;20208;-84
2022/10/08 07:31:36;;;;;;;17.30;11.80;;;15.40;99.90;;;;;;4787844;29;20299;-84
2022/10/08 07:34:07;;;;;;;18.47;11.87;;;15.50;99.90;;;;;;4771788;30;20208;-77
2022/10/08 07:36:34;;;;;;;17.63;11.50;;;15.60;99.90;;;;;;4767882;30;20207;-75
2022/10/08 07:39:04;;;;;;;19.33;12.63;;;15.70;99.90;;;;;;4770594;30;20220;-76
2022/10/08 07:41:47;;;;;;;17.50;11.57;;;15.70;99.90;;;;;;4785455;29;20204;-80
2022/10/08 07:44:15;;;;;;;17.03;11.20;;;15.70;99.90;;;;;;4769618;30;20677;-81
2022/10/08 07:46:56;;;;;;;20.67;11.33;;;15.70;99.90;;;;;;4781077;30;20204;-80
2022/10/08 07:49:23;;;;;;;18.07;11.63;;;15.70;99.90;;;;;;4770768;29;20681;-80
2022/10/08 07:51:50;;;;;;;19.07;11.93;;;15.90;99.90;;;;;;4773047;30;20208;-82
2022/10/08 07:54:18;;;;;;;16.73;11.40;;;15.90;99.90;;;;;;4789272;29;20295;-84
2022/10/08 07:56:46;;;;;;;17.60;11.27;;;16.00;99.90;;;;;;4786892;29;20248;-76
2022/10/08 07:59:14;;;;;;;22.10;12.57;;;16.10;99.90;;;;;;4780091;30;20224;-84
2022/10/08 08:01:42;;;;;;;17.70;10.77;;;16.10;99.90;;;;;;4783954;29;20197;-83
2022/10/08 08:04:10;;;;;;;19.57;10.70;;;16.30;99.90;;;;;;4770006;30;21767;-82
2022/10/08 08:06:48;;;;;;;18.60;10.37;;;16.30;99.90;;;;;;4771922;29;20749;-83
2022/10/08 08:09:17;;;;;;;14.93;10.13;;;16.30;99.90;;;;;;4771504;30;20200;-83
2022/10/08 08:11:45;;;;;;;15.27;10.40;;;16.40;99.90;;;;;;4771816;30;20651;-76
2022/10/08 08:14:12;;;;;;;16.53;10.47;;;16.50;99.90;;;;;;4771455;30;20650;-82
2022/10/08 08:16:42;;;;;;;15.87;10.33;;;16.50;99.90;;;;;;4770997;30;20211;-81
2022/10/08 08:19:09;;;;;;;15.87;11.00;;;16.50;99.90;;;;;;4770342;30;20271;-81
2022/10/08 08:21:37;;;;;;;15.10;10.13;;;16.60;99.90;;;;;;4787268;29;20208;-81
2022/10/08 08:24:08;;;;;;;17.37;10.73;;;16.70;99.90;;;;;;4771479;29;20201;-81
2022/10/08 08:26:37;;;;;;;13.70;10.00;;;16.80;99.90;;;;;;4787464;29;20204;-82
2022/10/08 08:29:13;;;;;;;15.63;10.57;;;17.00;99.90;;;;;;4771454;30;20273;-79
2022/10/08 08:31:48;;;;;;;18.77;10.37;;;16.90;99.90;;;;;;4771259;30;20646;-79
2022/10/08 08:34:18;;;;;;;17.60;10.17;;;16.90;99.90;;;;;;4770796;30;20295;-81
2022/10/08 08:36:47;;;;;;;14.70;9.43;;;17.20;99.90;;;;;;4773276;30;20208;-85
2022/10/08 08:39:18;;;;;;;15.17;9.80;;;17.30;99.90;;;;;;4775155;30;20276;-81
2022/10/08 08:42:06;;;;;;;17.13;10.67;;;17.40;99.90;;;;;;4772314;30;20254;-82
2022/10/08 08:44:48;;;;;;;17.43;9.43;;;17.50;99.90;;;;;;4773489;30;20233;-79
2022/10/08 08:47:31;;;;;;;15.77;9.33;;;17.80;99.90;;;;;;4770781;30;20211;-83
2022/10/08 08:50:29;;;;;;;14.60;9.60;;;17.80;99.90;;;;;;4772355;30;20208;-77
2022/10/08 08:53:00;;;;;;;12.37;9.53;;;18.10;99.90;;;;;;4766558;30;20270;-77
2022/10/08 08:55:42;;;;;;;13.57;9.40;;;18.50;99.90;;;;;;4772260;30;20211;-76
2022/10/08 08:58:36;;;;;;;14.07;9.70;;;18.60;99.90;;;;;;4763455;24;20252;-81
2022/10/08 09:01:09;;;;;;;13.07;9.13;;;19.00;99.90;;;;;;4754473;30;20698;-80
2022/10/08 09:03:44;;;;;;;16.73;9.23;;;19.40;99.90;;;;;;4769232;30;20663;-81
2022/10/08 09:06:15;;;;;;;16.03;9.10;;;19.40;99.90;;;;;;4769434;30;20651;-81
2022/10/08 09:09:13;;;;;;;13.77;9.40;;;19.60;99.90;;;;;;4737505;30;20209;-78
2022/10/08 09:11:42;;;;;;;12.30;8.80;;;19.60;99.90;;;;;;4749567;30;20205;-79
2022/10/08 09:14:10;;;;;;;11.90;8.70;;;19.70;99.90;;;;;;4734364;30;20236;-77
2022/10/08 09:16:38;;;;;;;13.03;8.90;;;19.70;99.90;;;;;;4737684;30;20814;-80
2022/10/08 09:19:05;;;;;;;12.23;8.67;;;20.00;99.90;;;;;;4734640;30;20287;-77
2022/10/08 09:21:33;;;;;;;12.17;9.17;;;20.30;99.90;;;;;;4754341;30;20206;-80
2022/10/08 09:24:00;;;;;;;14.33;9.37;;;20.50;99.90;;;;;;4754335;30;20206;-83
2022/10/08 09:26:34;;;;;;;12.37;8.63;;;20.80;99.90;;;;;;4738487;30;20214;-80
2022/10/08 09:29:03;;;;;;;13.73;9.03;;;21.00;99.90;;;;;;4738592;30;20218;-82
2022/10/08 09:31:46;;;;;;;14.23;8.87;;;21.10;99.90;;;;;;4738583;30;20210;-76
2022/10/08 09:34:16;;;;;;;14.30;8.60;;;21.50;99.90;;;;;;4738147;30;20244;-84
2022/10/08 09:37:04;;;;;;;12.47;9.07;;;21.40;99.90;;;;;;4738149;30;20671;-77
2022/10/08 09:39:34;;;;;;;13.77;8.87;;;20.80;99.90;;;;;;4738106;30;20226;-81
2022/10/08 09:42:08;;;;;;;13.63;8.93;;;20.70;99.90;;;;;;4754270;30;20210;-81
2022/10/08 09:48:23;;;;;;;12.17;8.43;;;21.30;99.90;;;;;;4954478;24;20244;-82
2022/10/08 09:59:47;;;;;;;13.43;9.37;;;22.90;99.90;;;;;;4820297;24;20322;-84
2022/10/08 10:04:54;;;;;;;13.40;9.00;;;23.60;99.90;;;;;;4787070;30;20228;-73
2022/10/08 10:07:22;;;;;;;10.93;8.67;;;23.10;99.90;;;;;;4796852;29;20580;-84
2022/10/08 10:09:56;;;;;;;19.73;9.13;;;23.50;99.90;;;;;;4788111;30;20211;-82
2022/10/08 10:12:27;;;;;;;11.93;8.67;;;23.70;99.90;;;;;;4788319;30;20315;-83
2022/10/08 10:15:01;;;;;;;12.93;8.57;;;24.00;99.90;;;;;;4772926;30;20265;-83
2022/10/08 10:18:00;;;;;;;11.17;8.00;;;23.90;99.90;;;;;;4788872;29;20551;-82
2022/10/08 10:20:40;;;;;;;11.43;8.07;;;24.40;99.90;;;;;;4788599;30;20231;-87
2022/10/08 10:28:51;;;;;;;11.55;7.68;;;24.60;99.90;;;;;;4793388;24;20313;-83
2022/10/08 10:31:30;;;;;;;13.02;8.77;;;24.60;99.90;;;;;;4783899;30;20259;-79
2022/10/08 10:34:15;;;;;;;12.23;8.40;;;23.80;99.90;;;;;;4770867;30;20219;-82
2022/10/08 10:37:12;;;;;;;11.93;8.63;;;23.40;99.90;;;;;;4777580;29;20207;-77
2022/10/08 10:40:07;;;;;;;14.77;9.10;;;22.60;99.90;;;;;;4796839;29;20235;-82
2022/10/08 10:42:42;;;;;;;13.57;9.07;;;22.40;99.90;;;;;;4791126;29;20199;-86
2022/10/08 10:45:55;;;;;;;12.77;8.93;;;22.30;99.90;;;;;;4790553;29;20213;-83
2022/10/08 10:48:22;;;;;;;14.37;8.57;;;22.20;99.90;;;;;;4705892;30;20242;-81
2022/10/08 10:50:58;;;;;;;12.13;8.50;;;21.90;99.90;;;;;;4715100;30;20847;-82
2022/10/08 10:53:51;;;;;;;16.10;9.30;;;21.90;99.90;;;;;;4681030;30;20215;-84
2022/10/08 10:56:20;;;;;;;13.37;8.53;;;21.70;99.90;;;;;;4684325;30;20231;-80
2022/10/08 10:58:58;;;;;;;12.83;8.73;;;21.50;99.90;;;;;;4702007;30;20231;-84
2022/10/08 11:01:34;;;;;;;12.67;8.40;;;21.40;99.90;;;;;;4697802;30;20207;-74
2022/10/08 11:04:30;;;;;;;10.90;7.80;;;21.20;99.90;;;;;;4697170;30;20296;-79
2022/10/08 11:07:01;;;;;;;12.93;8.70;;;21.00;99.90;;;;;;4662565;30;20222;-80
2022/10/08 11:09:44;;;;;;;11.97;8.80;;;20.90;99.90;;;;;;4664432;30;20208;-73
2022/10/08 11:12:29;;;;;;;12.73;9.17;;;20.70;99.90;;;;;;4674424;30;20208;-73
2022/10/08 11:15:00;;;;;;;11.77;8.73;;;20.50;99.90;;;;;;4678629;30;20204;-79
2022/10/08 11:17:51;;;;;;;13.23;8.90;;;20.40;99.90;;;;;;4664835;30;20208;-80
2022/10/08 11:20:45;;;;;;;14.60;9.07;;;20.20;99.90;;;;;;4680589;30;20700;-72
2022/10/08 11:23:33;;;;;;;14.47;9.60;;;20.00;99.90;;;;;;4686691;30;20283;-77
2022/10/08 11:26:11;;;;;;;13.57;9.40;;;19.90;99.90;;;;;;4742581;30;20209;-83
2022/10/08 11:28:59;;;;;;;12.97;8.97;;;19.60;99.90;;;;;;4746467;30;20213;-82
2022/10/08 11:31:41;;;;;;;14.87;9.33;;;19.50;99.90;;;;;;4747811;30;20221;-80
2022/10/08 11:34:23;;;;;;;14.17;10.10;;;19.40;99.90;;;;;;4737289;30;20211;-80
2022/10/08 11:37:10;;;;;;;14.40;9.73;;;19.40;99.90;;;;;;4748996;30;20304;-78
2022/10/08 11:39:45;;;;;;;14.67;9.83;;;19.30;99.90;;;;;;4732823;30;20716;-83
2022/10/08 11:42:54;;;;;;;17.37;10.20;;;19.20;99.90;;;;;;4734601;30;20208;-84
2022/10/08 11:45:24;;;;;;;12.77;9.30;;;19.20;99.90;;;;;;4730706;30;20300;-81
2022/10/08 11:47:56;;;;;;;15.90;10.10;;;19.20;99.90;;;;;;4717740;30;20202;-74
2022/10/08 11:50:23;;;;;;;14.63;9.57;;;19.20;99.90;;;;;;4730291;30;20218;-75
2022/10/08 11:52:52;;;;;;;15.67;9.83;;;19.20;99.90;;;;;;4738477;30;20708;-82
2022/10/08 11:55:30;;;;;;;15.00;10.13;;;19.30;99.90;;;;;;4716372;30;20202;-78
2022/10/08 11:58:03;;;;;;;17.00;10.30;;;19.30;99.90;;;;;;4731125;30;20206;-79
2022/10/08 12:00:54;;;;;;;;;;;;;;;;;;;;;
2022/10/08 12:03:32;;;;;;;15.23;10.00;;;19.50;99.90;;;;;;4748131;30;20236;-79
2022/10/08 12:06:18;;;;;;;16.40;10.80;;;19.50;99.90;;;;;;4739087;30;20237;-78
2022/10/08 12:08:53;;;;;;;22.07;14.37;;;19.40;99.90;;;;;;4735457;30;20222;-80
2022/10/08 12:11:34;;;;;;;15.33;10.40;;;19.50;99.90;;;;;;4734258;30;20222;-78
2022/10/08 12:14:10;;;;;;;17.07;10.33;;;19.50;99.90;;;;;;4721045;30;20638;-82
2022/10/08 12:20:28;;;;;;;13.83;10.47;;;19.70;99.90;;;;;;4752954;30;20228;-87
2022/10/08 12:23:27;;;;;;;17.17;10.87;;;19.50;99.90;;;;;;4755417;30;20668;-86
2022/10/08 12:26:07;;;;;;;14.70;10.70;;;19.60;99.90;;;;;;4754958;30;20205;-84
2022/10/08 12:32:15;;;;;;;14.57;11.03;;;20.00;99.90;;;;;;5096489;24;20254;-83
2022/10/08 12:34:48;;;;;;;17.87;11.57;;;20.20;99.90;;;;;;4788521;24;20320;-85
2022/10/08 12:38:12;;;;;;;16.30;11.83;;;20.00;99.90;;;;;;4774070;30;20212;-82
2022/10/08 12:41:00;;;;;;;17.00;12.43;;;19.90;99.90;;;;;;5006903;24;20237;-79
2022/10/08 12:47:19;;;;;;;16.83;12.93;;;20.10;99.90;;;;;;4752034;30;20668;-87
2022/10/08 13:06:42;;;;;;;16.47;12.77;;;20.10;99.90;;;;;;4751461;30;20205;-84
2022/10/08 13:34:18;;;;;;;20.27;13.63;;;19.40;99.90;;;;;;4938960;24;20275;-83
2022/10/08 13:58:08;;;;;;;18.87;12.63;;;19.40;99.90;;;;;;3046542;24;20510;-80
2022/10/08 14:00:43;;;;;;;17.40;12.53;;;19.40;99.90;;;;;;4730212;30;20230;-80
2022/10/08 14:17:48;;;;;;;16.87;11.47;;;19.20;99.90;;;;;;3182509;27;20245;-80
2022/10/08 14:24:33;;;;;;;18.10;11.90;;;19.30;99.90;;;;;;4851338;24;20243;-80
2022/10/08 14:38:12;;;;;;;21.53;12.27;;;19.40;99.90;;;;;;4953235;24;20273;-80
2022/10/08 14:41:23;;;;;;;18.40;12.40;;;19.40;99.90;;;;;;4750628;30;20237;-80
2022/10/08 14:44:37;;;;;;;18.53;11.87;;;19.30;99.90;;;;;;4751172;30;20309;-80
2022/10/08 15:00:38;;;;;;;17.17;11.83;;;19.10;99.90;;;;;;5327791;24;20239;-81
2022/10/08 15:04:32;;;;;;;19.47;12.30;;;19.10;99.90;;;;;;4744649;30;20226;-79
2022/10/08 15:08:13;;;;;;;18.10;12.40;;;19.20;99.90;;;;;;4751376;30;20205;-79
2022/10/08 15:22:39;;;;;;;16.40;11.90;;;18.80;99.90;;;;;;4905972;24;20252;-81
2022/10/08 15:26:15;;;;;;;16.47;12.40;;;18.70;99.90;;;;;;4830143;24;20248;-82
2022/10/08 15:28:53;;;;;;;17.03;13.07;;;18.60;99.90;;;;;;4718640;30;20219;-82
2022/10/08 15:31:24;;;;;;;18.80;13.47;;;18.60;99.90;;;;;;4718479;30;21042;-82
2022/10/08 15:33:53;;;;;;;18.47;13.80;;;18.50;99.90;;;;;;4718517;30;20308;-83
2022/10/08 15:36:25;;;;;;;21.17;13.87;;;18.40;99.90;;;;;;4718674;30;20249;-85
2022/10/08 15:39:04;;;;;;;20.80;13.43;;;18.40;99.90;;;;;;4717921;30;20230;-82
2022/10/08 15:41:35;;;;;;;18.70;13.40;;;18.30;99.90;;;;;;4718302;30;20244;-82